sensor_id;sensor_type;location;lat;lon;timestamp;P1;durP1;ratioP1;P2;durP2;ratioP2
1054;SDS011;516;51.482;7.120;2022-12-18T00:04:49;94.93;;;50.63;;
1054;SDS011;516;51.482;7.120;2022-12-18T00:10:37;97.00;;;55.87;;
1054;SDS011;516;51.482;7.120;2022-12-18T00:16:25;100.97;;;55.93;;
1054;SDS011;516;51.482;7.120;2022-12-18T00:22:13;103.50;;;53.17;;
1054;SDS011;516;51.482;7.120;2022-12-18T00:28:01;110.53;;;54.23;;
1054;SDS011;516;51.482;7.120;2022-12-18T00:33:53;89.67;;;51.10;;
1054;SDS011;516;51.482;7.120;2022-12-18T00:39:43;79.80;;;48.20;;
1054;SDS011;516;51.482;7.120;2022-12-18T00:45:30;78.10;;;49.10;;
1054;SDS011;516;51.482;7.120;2022-12-18T00:51:18;83.73;;;48.60;;
1054;SDS011;516;51.482;7.120;2022-12-18T00:57:06;84.40;;;49.33;;
1054;SDS011;516;51.482;7.120;2022-12-18T01:06:16;73.47;;;46.23;;
1054;SDS011;516;51.482;7.120;2022-12-18T01:12:04;71.23;;;44.97;;
1054;SDS011;516;51.482;7.120;2022-12-18T01:17:52;86.90;;;47.17;;
1054;SDS011;516;51.482;7.120;2022-12-18T01:23:40;80.20;;;48.03;;
1054;SDS011;516;51.482;7.120;2022-12-18T01:29:27;86.00;;;46.77;;
1054;SDS011;516;51.482;7.120;2022-12-18T01:35:16;80.07;;;46.83;;
1054;SDS011;516;51.482;7.120;2022-12-18T01:41:04;65.30;;;40.23;;
1054;SDS011;516;51.482;7.120;2022-12-18T01:46:52;103.53;;;45.43;;
1054;SDS011;516;51.482;7.120;2022-12-18T01:52:40;68.13;;;42.20;;
1054;SDS011;516;51.482;7.120;2022-12-18T01:58:39;75.97;;;42.67;;
1054;SDS011;516;51.482;7.120;2022-12-18T02:01:47;82.23;;;47.87;;
1054;SDS011;516;51.482;7.120;2022-12-18T02:04:20;77.20;;;42.00;;
1054;SDS011;516;51.482;7.120;2022-12-18T02:16:17;85.47;;;45.60;;
1054;SDS011;516;51.482;7.120;2022-12-18T02:28:31;67.17;;;41.33;;
1054;SDS011;516;51.482;7.120;2022-12-18T02:34:25;60.50;;;34.93;;
1054;SDS011;516;51.482;7.120;2022-12-18T02:40:17;67.93;;;37.50;;
1054;SDS011;516;51.482;7.120;2022-12-18T02:58:44;68.77;;;35.87;;
1054;SDS011;516;51.482;7.120;2022-12-18T03:04:53;71.60;;;40.53;;
1054;SDS011;516;51.482;7.120;2022-12-18T03:11:23;73.10;;;36.07;;
1054;SDS011;516;51.482;7.120;2022-12-18T03:17:33;57.00;;;39.20;;
1054;SDS011;516;51.482;7.120;2022-12-18T03:23:22;63.13;;;38.17;;
1054;SDS011;516;51.482;7.120;2022-12-18T03:29:18;60.87;;;38.00;;
1054;SDS011;516;51.482;7.120;2022-12-18T03:35:10;61.73;;;37.80;;
1054;SDS011;516;51.482;7.120;2022-12-18T03:41:04;58.17;;;36.00;;
1054;SDS011;516;51.482;7.120;2022-12-18T03:47:40;73.53;;;36.80;;
1054;SDS011;516;51.482;7.120;2022-12-18T03:54:06;66.80;;;36.43;;
1054;SDS011;516;51.482;7.120;2022-12-18T04:00:07;67.13;;;35.93;;
1054;SDS011;516;51.482;7.120;2022-12-18T04:06:41;60.97;;;34.97;;
1054;SDS011;516;51.482;7.120;2022-12-18T04:12:30;62.33;;;38.63;;
1054;SDS011;516;51.482;7.120;2022-12-18T04:18:17;61.93;;;37.30;;
1054;SDS011;516;51.482;7.120;2022-12-18T04:24:05;70.17;;;37.27;;
1054;SDS011;516;51.482;7.120;2022-12-18T04:29:53;57.17;;;34.00;;
1054;SDS011;516;51.482;7.120;2022-12-18T04:35:40;61.47;;;35.63;;
1054;SDS011;516;51.482;7.120;2022-12-18T04:41:27;64.03;;;35.33;;
1054;SDS011;516;51.482;7.120;2022-12-18T04:47:15;71.50;;;39.33;;
1054;SDS011;516;51.482;7.120;2022-12-18T04:53:03;72.77;;;41.40;;
1054;SDS011;516;51.482;7.120;2022-12-18T04:58:51;59.33;;;36.53;;
1054;SDS011;516;51.482;7.120;2022-12-18T05:04:11;62.43;;;37.83;;
1054;SDS011;516;51.482;7.120;2022-12-18T05:09:59;59.60;;;37.83;;
1054;SDS011;516;51.482;7.120;2022-12-18T05:15:51;54.40;;;35.10;;
1054;SDS011;516;51.482;7.120;2022-12-18T05:21:39;55.47;;;35.50;;
1054;SDS011;516;51.482;7.120;2022-12-18T05:27:27;48.57;;;32.90;;
1054;SDS011;516;51.482;7.120;2022-12-18T05:33:14;43.93;;;32.07;;
1054;SDS011;516;51.482;7.120;2022-12-18T05:39:02;61.73;;;33.00;;
1054;SDS011;516;51.482;7.120;2022-12-18T05:44:50;59.63;;;34.97;;
1054;SDS011;516;51.482;7.120;2022-12-18T05:50:39;54.80;;;34.20;;
1054;SDS011;516;51.482;7.120;2022-12-18T05:56:28;53.80;;;34.97;;
1054;SDS011;516;51.482;7.120;2022-12-18T06:12:06;54.27;;;32.97;;
1054;SDS011;516;51.482;7.120;2022-12-18T06:17:54;46.43;;;30.47;;
1054;SDS011;516;51.482;7.120;2022-12-18T06:23:42;59.20;;;33.90;;
1054;SDS011;516;51.482;7.120;2022-12-18T06:29:30;58.47;;;34.23;;
1054;SDS011;516;51.482;7.120;2022-12-18T06:35:18;59.13;;;34.00;;
1054;SDS011;516;51.482;7.120;2022-12-18T06:41:13;48.67;;;30.50;;
1054;SDS011;516;51.482;7.120;2022-12-18T06:47:02;56.80;;;32.50;;
1054;SDS011;516;51.482;7.120;2022-12-18T06:52:51;47.73;;;30.70;;
1054;SDS011;516;51.482;7.120;2022-12-18T06:58:39;48.63;;;31.40;;
1054;SDS011;516;51.482;7.120;2022-12-18T07:07:49;47.27;;;30.37;;
1054;SDS011;516;51.482;7.120;2022-12-18T07:13:36;54.73;;;33.93;;
1054;SDS011;516;51.482;7.120;2022-12-18T07:19:23;44.13;;;30.30;;
1054;SDS011;516;51.482;7.120;2022-12-18T07:25:11;53.53;;;28.00;;
1054;SDS011;516;51.482;7.120;2022-12-18T07:34:36;47.50;;;30.90;;
1054;SDS011;516;51.482;7.120;2022-12-18T07:40:23;54.63;;;30.87;;
1054;SDS011;516;51.482;7.120;2022-12-18T07:46:10;52.13;;;28.80;;
1054;SDS011;516;51.482;7.120;2022-12-18T07:52:00;52.90;;;31.80;;
1054;SDS011;516;51.482;7.120;2022-12-18T07:57:48;59.40;;;34.43;;
1054;SDS011;516;51.482;7.120;2022-12-18T08:13:34;49.90;;;34.50;;
1054;SDS011;516;51.482;7.120;2022-12-18T08:19:03;73.53;;;42.23;;
1054;SDS011;516;51.482;7.120;2022-12-18T08:24:51;70.03;;;37.17;;
1054;SDS011;516;51.482;7.120;2022-12-18T08:30:39;78.03;;;41.03;;
1054;SDS011;516;51.482;7.120;2022-12-18T08:36:26;67.13;;;40.50;;
1054;SDS011;516;51.482;7.120;2022-12-18T08:42:15;60.73;;;40.40;;
1054;SDS011;516;51.482;7.120;2022-12-18T08:48:21;61.23;;;38.70;;
1054;SDS011;516;51.482;7.120;2022-12-18T08:50:56;61.10;;;37.57;;
1054;SDS011;516;51.482;7.120;2022-12-18T08:53:23;73.70;;;46.37;;
1054;SDS011;516;51.482;7.120;2022-12-18T08:59:11;51.00;;;32.37;;
1054;SDS011;516;51.482;7.120;2022-12-18T09:08:21;47.30;;;32.70;;
1054;SDS011;516;51.482;7.120;2022-12-18T09:14:09;49.03;;;36.00;;
1054;SDS011;516;51.482;7.120;2022-12-18T09:19:57;49.53;;;32.93;;
1054;SDS011;516;51.482;7.120;2022-12-18T09:25:45;40.97;;;30.67;;
1054;SDS011;516;51.482;7.120;2022-12-18T09:31:33;42.40;;;31.43;;
1054;SDS011;516;51.482;7.120;2022-12-18T09:37:21;44.87;;;33.37;;
1054;SDS011;516;51.482;7.120;2022-12-18T09:43:12;40.53;;;33.03;;
1054;SDS011;516;51.482;7.120;2022-12-18T09:49:41;40.70;;;32.80;;
1054;SDS011;516;51.482;7.120;2022-12-18T10:01:20;46.50;;;41.27;;
1054;SDS011;516;51.482;7.120;2022-12-18T10:03:47;42.67;;;34.00;;
1054;SDS011;516;51.482;7.120;2022-12-18T10:06:15;44.90;;;38.40;;
1054;SDS011;516;51.482;7.120;2022-12-18T10:30:46;12.10;;;11.10;;
1054;SDS011;516;51.482;7.120;2022-12-18T10:36:33;11.70;;;10.90;;
1054;SDS011;516;51.482;7.120;2022-12-18T10:42:21;12.37;;;11.57;;
1054;SDS011;516;51.482;7.120;2022-12-18T10:48:19;12.83;;;12.03;;
1054;SDS011;516;51.482;7.120;2022-12-18T10:54:17;13.33;;;11.93;;
1054;SDS011;516;51.482;7.120;2022-12-18T11:00:42;12.57;;;11.30;;
1054;SDS011;516;51.482;7.120;2022-12-18T11:06:59;13.40;;;12.40;;
1054;SDS011;516;51.482;7.120;2022-12-18T11:12:49;20.37;;;11.00;;
1054;SDS011;516;51.482;7.120;2022-12-18T11:18:38;12.13;;;11.13;;
1054;SDS011;516;51.482;7.120;2022-12-18T11:24:27;11.87;;;10.77;;
1054;SDS011;516;51.482;7.120;2022-12-18T11:36:12;10.57;;;9.67;;
1054;SDS011;516;51.482;7.120;2022-12-18T11:42:08;11.10;;;10.30;;
1054;SDS011;516;51.482;7.120;2022-12-18T11:48:43;12.23;;;10.87;;
1054;SDS011;516;51.482;7.120;2022-12-18T11:55:14;12.93;;;12.03;;
1054;SDS011;516;51.482;7.120;2022-12-18T12:10:58;12.67;;;11.80;;
1054;SDS011;516;51.482;7.120;2022-12-18T12:17:35;11.43;;;10.53;;
1054;SDS011;516;51.482;7.120;2022-12-18T12:30:15;13.53;;;12.03;;
1054;SDS011;516;51.482;7.120;2022-12-18T12:36:46;11.20;;;10.30;;
1054;SDS011;516;51.482;7.120;2022-12-18T12:43:47;11.67;;;10.67;;
1054;SDS011;516;51.482;7.120;2022-12-18T13:13:05;12.93;;;11.73;;
1054;SDS011;516;51.482;7.120;2022-12-18T13:18:55;12.10;;;11.07;;
1054;SDS011;516;51.482;7.120;2022-12-18T13:24:45;14.13;;;12.77;;
1054;SDS011;516;51.482;7.120;2022-12-18T13:36:28;13.03;;;11.70;;
1054;SDS011;516;51.482;7.120;2022-12-18T13:48:24;14.07;;;12.67;;
1054;SDS011;516;51.482;7.120;2022-12-18T14:00:42;13.27;;;12.10;;
1054;SDS011;516;51.482;7.120;2022-12-18T14:13:36;15.57;;;14.10;;
1054;SDS011;516;51.482;7.120;2022-12-18T14:26:28;17.00;;;15.30;;
1054;SDS011;516;51.482;7.120;2022-12-18T14:32:18;15.47;;;13.87;;
1054;SDS011;516;51.482;7.120;2022-12-18T14:34:46;17.07;;;15.43;;
1054;SDS011;516;51.482;7.120;2022-12-18T14:37:37;16.57;;;14.97;;
1054;SDS011;516;51.482;7.120;2022-12-18T14:43:25;19.17;;;15.33;;
1054;SDS011;516;51.482;7.120;2022-12-18T14:55:15;19.33;;;16.80;;
1054;SDS011;516;51.482;7.120;2022-12-18T15:01:06;18.27;;;15.07;;
1054;SDS011;516;51.482;7.120;2022-12-18T15:16:40;18.83;;;15.77;;
1054;SDS011;516;51.482;7.120;2022-12-18T15:22:29;16.30;;;14.70;;
1054;SDS011;516;51.482;7.120;2022-12-18T15:28:25;22.33;;;17.73;;
1054;SDS011;516;51.482;7.120;2022-12-18T15:34:19;17.07;;;14.53;;
1054;SDS011;516;51.482;7.120;2022-12-18T15:40:14;19.93;;;16.30;;
1054;SDS011;516;51.482;7.120;2022-12-18T15:46:04;17.57;;;15.90;;
1054;SDS011;516;51.482;7.120;2022-12-18T15:51:55;17.57;;;15.73;;
1054;SDS011;516;51.482;7.120;2022-12-18T15:57:46;15.93;;;14.37;;
1054;SDS011;516;51.482;7.120;2022-12-18T16:03:34;19.93;;;15.70;;
1054;SDS011;516;51.482;7.120;2022-12-18T16:08:46;20.10;;;16.63;;
1054;SDS011;516;51.482;7.120;2022-12-18T16:14:33;20.20;;;16.40;;
1054;SDS011;516;51.482;7.120;2022-12-18T16:20:21;21.20;;;19.07;;
1054;SDS011;516;51.482;7.120;2022-12-18T16:26:09;23.83;;;18.97;;
1054;SDS011;516;51.482;7.120;2022-12-18T16:31:59;19.70;;;17.00;;
1054;SDS011;516;51.482;7.120;2022-12-18T16:37:47;18.03;;;14.93;;
1054;SDS011;516;51.482;7.120;2022-12-18T16:43:35;20.70;;;18.20;;
1054;SDS011;516;51.482;7.120;2022-12-18T16:49:23;24.60;;;18.10;;
1054;SDS011;516;51.482;7.120;2022-12-18T16:55:11;23.93;;;19.37;;
1054;SDS011;516;51.482;7.120;2022-12-18T17:00:58;19.50;;;17.50;;
1054;SDS011;516;51.482;7.120;2022-12-18T17:16:43;22.27;;;19.53;;
1054;SDS011;516;51.482;7.120;2022-12-18T17:22:32;22.50;;;18.17;;
1054;SDS011;516;51.482;7.120;2022-12-18T17:28:20;23.73;;;18.17;;
1054;SDS011;516;51.482;7.120;2022-12-18T17:34:08;24.90;;;20.77;;
1054;SDS011;516;51.482;7.120;2022-12-18T17:40:00;24.83;;;19.93;;
1054;SDS011;516;51.482;7.120;2022-12-18T17:45:48;31.33;;;19.07;;
1054;SDS011;516;51.482;7.120;2022-12-18T17:51:36;26.80;;;21.83;;
1054;SDS011;516;51.482;7.120;2022-12-18T17:57:23;24.10;;;19.63;;
1054;SDS011;516;51.482;7.120;2022-12-18T18:03:10;30.70;;;20.00;;
1054;SDS011;516;51.482;7.120;2022-12-18T18:08:50;23.87;;;18.00;;
1054;SDS011;516;51.482;7.120;2022-12-18T18:14:37;19.40;;;14.87;;
1054;SDS011;516;51.482;7.120;2022-12-18T18:23:46;27.83;;;19.43;;
1054;SDS011;516;51.482;7.120;2022-12-18T18:29:34;24.30;;;15.77;;
1054;SDS011;516;51.482;7.120;2022-12-18T18:35:22;25.40;;;19.03;;
1054;SDS011;516;51.482;7.120;2022-12-18T18:41:10;22.00;;;19.30;;
1054;SDS011;516;51.482;7.120;2022-12-18T18:46:58;28.23;;;19.70;;
1054;SDS011;516;51.482;7.120;2022-12-18T18:52:45;30.03;;;20.83;;
1054;SDS011;516;51.482;7.120;2022-12-18T18:58:33;30.27;;;21.07;;
1054;SDS011;516;51.482;7.120;2022-12-18T19:04:21;29.27;;;22.13;;
1054;SDS011;516;51.482;7.120;2022-12-18T19:13:32;32.30;;;23.17;;
1054;SDS011;516;51.482;7.120;2022-12-18T19:19:20;28.33;;;23.23;;
1054;SDS011;516;51.482;7.120;2022-12-18T19:25:08;36.80;;;24.77;;
1054;SDS011;516;51.482;7.120;2022-12-18T19:31:00;33.30;;;23.20;;
1054;SDS011;516;51.482;7.120;2022-12-18T19:36:49;35.40;;;22.77;;
1054;SDS011;516;51.482;7.120;2022-12-18T19:42:40;26.87;;;17.00;;
1054;SDS011;516;51.482;7.120;2022-12-18T19:48:28;29.43;;;20.60;;
1054;SDS011;516;51.482;7.120;2022-12-18T19:54:15;27.23;;;21.63;;
1054;SDS011;516;51.482;7.120;2022-12-18T20:00:03;26.60;;;19.67;;
1054;SDS011;516;51.482;7.120;2022-12-18T20:05:33;28.73;;;20.90;;
1054;SDS011;516;51.482;7.120;2022-12-18T20:11:23;32.53;;;20.50;;
1054;SDS011;516;51.482;7.120;2022-12-18T20:17:11;31.73;;;22.30;;
1054;SDS011;516;51.482;7.120;2022-12-18T20:22:59;34.90;;;22.10;;
1054;SDS011;516;51.482;7.120;2022-12-18T20:28:47;32.77;;;22.50;;
1054;SDS011;516;51.482;7.120;2022-12-18T20:34:35;21.57;;;16.90;;
1054;SDS011;516;51.482;7.120;2022-12-18T20:40:23;31.00;;;21.83;;
1054;SDS011;516;51.482;7.120;2022-12-18T20:46:12;27.63;;;21.43;;
1054;SDS011;516;51.482;7.120;2022-12-18T20:52:02;33.13;;;23.03;;
1054;SDS011;516;51.482;7.120;2022-12-18T20:57:50;32.10;;;22.57;;
1054;SDS011;516;51.482;7.120;2022-12-18T21:03:39;39.63;;;24.07;;
1054;SDS011;516;51.482;7.120;2022-12-18T21:19:19;29.40;;;20.40;;
1054;SDS011;516;51.482;7.120;2022-12-18T21:25:09;33.43;;;22.60;;
1054;SDS011;516;51.482;7.120;2022-12-18T21:30:57;25.80;;;18.17;;
1054;SDS011;516;51.482;7.120;2022-12-18T21:36:45;30.90;;;19.97;;
1054;SDS011;516;51.482;7.120;2022-12-18T21:42:34;27.20;;;17.27;;
1054;SDS011;516;51.482;7.120;2022-12-18T21:48:40;24.63;;;17.93;;
1054;SDS011;516;51.482;7.120;2022-12-18T21:54:29;32.00;;;18.53;;
1054;SDS011;516;51.482;7.120;2022-12-18T22:00:17;33.57;;;21.07;;
1054;SDS011;516;51.482;7.120;2022-12-18T22:06:05;34.30;;;20.73;;
1054;SDS011;516;51.482;7.120;2022-12-18T22:11:25;16.83;;;12.20;;
1054;SDS011;516;51.482;7.120;2022-12-18T22:17:13;31.17;;;19.60;;
1054;SDS011;516;51.482;7.120;2022-12-18T22:23:00;38.63;;;17.53;;
1054;SDS011;516;51.482;7.120;2022-12-18T22:28:49;36.27;;;21.43;;
1054;SDS011;516;51.482;7.120;2022-12-18T22:34:56;36.43;;;21.63;;
1054;SDS011;516;51.482;7.120;2022-12-18T22:40:44;27.67;;;15.20;;
1054;SDS011;516;51.482;7.120;2022-12-18T22:46:34;29.17;;;18.30;;
1054;SDS011;516;51.482;7.120;2022-12-18T22:52:24;35.73;;;21.00;;
1054;SDS011;516;51.482;7.120;2022-12-18T22:58:12;34.27;;;21.43;;
1054;SDS011;516;51.482;7.120;2022-12-18T23:03:59;38.83;;;20.63;;
1054;SDS011;516;51.482;7.120;2022-12-18T23:13:32;25.50;;;16.53;;
1054;SDS011;516;51.482;7.120;2022-12-18T23:19:20;33.27;;;19.57;;
1054;SDS011;516;51.482;7.120;2022-12-18T23:25:09;32.47;;;20.70;;
1054;SDS011;516;51.482;7.120;2022-12-18T23:31:19;26.20;;;18.57;;
1054;SDS011;516;51.482;7.120;2022-12-18T23:47:43;29.60;;;18.07;;
1054;SDS011;516;51.482;7.120;2022-12-18T23:53:33;32.50;;;19.47;;
1054;SDS011;516;51.482;7.120;2022-12-18T23:59:20;31.77;;;21.60;;
